SWA2986 KMSP-KMDW
Flight info
| Callsign | SWA2986 |
|---|---|
| Flight time | 1h 4m |
| Altitude | 37000 |
| Route | RST1 RST OHHMY ENDEE8 |
| Aircraft | B737/M-SDE2E3FGHIRWXY/LB1 |
Departure
| Time | 2026-05-07 18:59 |
|---|---|
| Airport | Minneapolis–Saint Paul International Airport / Wold–Chamberlain Field (KMSP) |
Arrival
| Time | 2026-05-07 20:04 |
|---|---|
| Airport | Chicago Midway International Airport (KMDW) |
| Time | Latitude | Longitude | Altitude | Speed | Heading |
|---|---|---|---|---|---|
| 2026-05-07 18:50 | 44.87656 | -93.22613 | 824 ft | 0 kts | 135° |
| 2026-05-07 18:51 | 44.87661 | -93.22621 | 823 ft | 4 kts | 135° |
| 2026-05-07 18:51 | 44.87680 | -93.22648 | 824 ft | 4 kts | 135° |
| 2026-05-07 18:52 | 44.87700 | -93.22675 | 820 ft | 4 kts | 135° |
| 2026-05-07 18:52 | 44.87719 | -93.22702 | 824 ft | 4 kts | 135° |
| 2026-05-07 18:52 | 44.87723 | -93.22708 | 824 ft | 0 kts | 135° |
| 2026-05-07 18:54 | 44.87726 | -93.22685 | 824 ft | 4 kts | 50° |
| 2026-05-07 18:54 | 44.87755 | -93.22659 | 822 ft | 6 kts | 33° |
| 2026-05-07 18:54 | 44.87795 | -93.22621 | 822 ft | 8 kts | 36° |
| 2026-05-07 18:55 | 44.87837 | -93.22558 | 824 ft | 10 kts | 46° |
| 2026-05-07 18:55 | 44.87892 | -93.22482 | 824 ft | 12 kts | 45° |
| 2026-05-07 18:55 | 44.87956 | -93.22392 | 823 ft | 14 kts | 44° |
| 2026-05-07 18:55 | 44.88024 | -93.22291 | 824 ft | 15 kts | 46° |
| 2026-05-07 18:56 | 44.88091 | -93.22179 | 822 ft | 15 kts | 66° |
| 2026-05-07 18:56 | 44.88056 | -93.22045 | 822 ft | 16 kts | 121° |
| 2026-05-07 18:56 | 44.87993 | -93.21897 | 823 ft | 19 kts | 122° |
| 2026-05-07 18:56 | 44.87919 | -93.21728 | 822 ft | 21 kts | 122° |
| 2026-05-07 18:57 | 44.87844 | -93.21555 | 823 ft | 20 kts | 121° |
| 2026-05-07 18:57 | 44.87771 | -93.21386 | 820 ft | 20 kts | 121° |
| 2026-05-07 18:57 | 44.87696 | -93.21228 | 821 ft | 19 kts | 126° |
| 2026-05-07 18:57 | 44.87633 | -93.21065 | 822 ft | 19 kts | 120° |
| 2026-05-07 18:58 | 44.87567 | -93.20913 | 821 ft | 15 kts | 121° |
| 2026-05-07 18:58 | 44.87565 | -93.20818 | 823 ft | 10 kts | 46° |
| 2026-05-07 18:58 | 44.87628 | -93.20777 | 825 ft | 10 kts | 345° |
| 2026-05-07 18:58 | 44.87699 | -93.20922 | 824 ft | 44 kts | 301° |
| 2026-05-07 18:59 | 44.88000 | -93.21619 | 822 ft | 120 kts | 301° |
| 2026-05-07 18:59 | 44.88532 | -93.22821 | 991 ft | 161 kts | 303° |
| 2026-05-07 18:59 | 44.89141 | -93.24159 | 1785 ft | 162 kts | 304° |
| 2026-05-07 18:59 | 44.89722 | -93.25537 | 2584 ft | 168 kts | 292° |
| 2026-05-07 19:00 | 44.89844 | -93.27315 | 2996 ft | 201 kts | 258° |
| 2026-05-07 19:00 | 44.89136 | -93.29132 | 3543 ft | 222 kts | 230° |
| 2026-05-07 19:00 | 44.88053 | -93.30825 | 4029 ft | 246 kts | 228° |
| 2026-05-07 19:00 | 44.86739 | -93.32516 | 4685 ft | 265 kts | 212° |
| 2026-05-07 19:01 | 44.84972 | -93.33246 | 5756 ft | 270 kts | 180° |
| 2026-05-07 19:01 | 44.83159 | -93.32546 | 6839 ft | 274 kts | 154° |
| 2026-05-07 19:01 | 44.81473 | -93.31305 | 7767 ft | 280 kts | 153° |
| 2026-05-07 19:01 | 44.79741 | -93.29993 | 8692 ft | 285 kts | 153° |
| 2026-05-07 19:02 | 44.77975 | -93.28675 | 9641 ft | 288 kts | 153° |
| 2026-05-07 19:02 | 44.76171 | -93.27358 | 10449 ft | 299 kts | 154° |
| 2026-05-07 19:02 | 44.74231 | -93.25973 | 10716 ft | 328 kts | 154° |
| 2026-05-07 19:02 | 44.72120 | -93.24487 | 11100 ft | 348 kts | 155° |
| 2026-05-07 19:03 | 44.69918 | -93.22947 | 11851 ft | 356 kts | 155° |
| 2026-05-07 19:03 | 44.67679 | -93.21388 | 12711 ft | 360 kts | 155° |
| 2026-05-07 19:03 | 44.65415 | -93.19815 | 13554 ft | 365 kts | 155° |
| 2026-05-07 19:03 | 44.63145 | -93.18246 | 14414 ft | 370 kts | 155° |
| 2026-05-07 19:04 | 44.60830 | -93.16636 | 15278 ft | 374 kts | 155° |
| 2026-05-07 19:04 | 44.58480 | -93.14990 | 16128 ft | 379 kts | 155° |
| 2026-05-07 19:04 | 44.56106 | -93.13325 | 16950 ft | 384 kts | 155° |
| 2026-05-07 19:04 | 44.53703 | -93.11638 | 17745 ft | 388 kts | 155° |
| 2026-05-07 19:05 | 44.51269 | -93.09939 | 18494 ft | 394 kts | 155° |
| 2026-05-07 19:05 | 44.48799 | -93.08213 | 19227 ft | 399 kts | 155° |
| 2026-05-07 19:05 | 44.46302 | -93.06471 | 19927 ft | 403 kts | 156° |
| 2026-05-07 19:05 | 44.43777 | -93.04715 | 20609 ft | 408 kts | 155° |
| 2026-05-07 19:06 | 44.41233 | -93.02945 | 21211 ft | 410 kts | 155° |
| 2026-05-07 19:06 | 44.36041 | -92.99346 | 22398 ft | 420 kts | 155° |
| 2026-05-07 19:06 | 44.33414 | -92.97521 | 23026 ft | 423 kts | 155° |
| 2026-05-07 19:07 | 44.30797 | -92.95704 | 23578 ft | 427 kts | 155° |
| 2026-05-07 19:07 | 44.28119 | -92.93849 | 24128 ft | 431 kts | 155° |
| 2026-05-07 19:07 | 44.25418 | -92.91981 | 24665 ft | 435 kts | 155° |
| 2026-05-07 19:07 | 44.22694 | -92.90100 | 25184 ft | 439 kts | 155° |
| 2026-05-07 19:08 | 44.19947 | -92.88203 | 25665 ft | 443 kts | 155° |
| 2026-05-07 19:08 | 44.17172 | -92.86287 | 26119 ft | 447 kts | 155° |
| 2026-05-07 19:08 | 44.14364 | -92.84353 | 26573 ft | 451 kts | 155° |
| 2026-05-07 19:08 | 44.11542 | -92.82411 | 27036 ft | 454 kts | 155° |
| 2026-05-07 19:09 | 44.08700 | -92.80459 | 27473 ft | 457 kts | 155° |
| 2026-05-07 19:09 | 44.05835 | -92.78495 | 27879 ft | 461 kts | 155° |
| 2026-05-07 19:09 | 44.02952 | -92.76520 | 28288 ft | 464 kts | 155° |
| 2026-05-07 19:09 | 44.00066 | -92.74545 | 28538 ft | 470 kts | 155° |
| 2026-05-07 19:10 | 43.97135 | -92.72539 | 29051 ft | 469 kts | 155° |
| 2026-05-07 19:10 | 43.94195 | -92.70530 | 29401 ft | 473 kts | 156° |
| 2026-05-07 19:10 | 43.91223 | -92.68502 | 29665 ft | 478 kts | 156° |
| 2026-05-07 19:10 | 43.88253 | -92.66476 | 30337 ft | 473 kts | 156° |
| 2026-05-07 19:11 | 43.85311 | -92.64470 | 30871 ft | 472 kts | 156° |
| 2026-05-07 19:11 | 43.82352 | -92.62456 | 31184 ft | 476 kts | 156° |
| 2026-05-07 19:11 | 43.79355 | -92.60419 | 31445 ft | 481 kts | 156° |
| 2026-05-07 19:11 | 43.76420 | -92.58143 | 31704 ft | 487 kts | 149° |
| 2026-05-07 19:12 | 43.73592 | -92.55527 | 32041 ft | 489 kts | 147° |
| 2026-05-07 19:12 | 43.70800 | -92.52839 | 32458 ft | 488 kts | 147° |
| 2026-05-07 19:12 | 43.68023 | -92.50136 | 32885 ft | 488 kts | 147° |
| 2026-05-07 19:12 | 43.65247 | -92.47449 | 33275 ft | 488 kts | 147° |
| 2026-05-07 19:13 | 43.62459 | -92.44777 | 33614 ft | 488 kts | 147° |
| 2026-05-07 19:13 | 43.59659 | -92.42119 | 33964 ft | 489 kts | 147° |
| 2026-05-07 19:13 | 43.56852 | -92.39472 | 34288 ft | 489 kts | 148° |
| 2026-05-07 19:13 | 43.54034 | -92.36828 | 34644 ft | 488 kts | 148° |
| 2026-05-07 19:14 | 43.51263 | -92.34232 | 35014 ft | 488 kts | 148° |
| 2026-05-07 19:14 | 43.48457 | -92.31608 | 35358 ft | 487 kts | 148° |
| 2026-05-07 19:14 | 43.45663 | -92.28995 | 35684 ft | 487 kts | 148° |
| 2026-05-07 19:14 | 43.42855 | -92.26374 | 35996 ft | 487 kts | 148° |
| 2026-05-07 19:15 | 43.40061 | -92.23767 | 36306 ft | 486 kts | 148° |
| 2026-05-07 19:15 | 43.37259 | -92.21157 | 36549 ft | 487 kts | 148° |
| 2026-05-07 19:15 | 43.34452 | -92.18544 | 36837 ft | 487 kts | 148° |
| 2026-05-07 19:15 | 43.31658 | -92.15945 | 37247 ft | 483 kts | 148° |
| 2026-05-07 19:16 | 43.28882 | -92.13363 | 37689 ft | 478 kts | 148° |
| 2026-05-07 19:16 | 43.26128 | -92.10807 | 37994 ft | 477 kts | 148° |
| 2026-05-07 19:16 | 43.23378 | -92.08259 | 38181 ft | 478 kts | 148° |
| 2026-05-07 19:16 | 43.20646 | -92.05730 | 38316 ft | 480 kts | 148° |
| 2026-05-07 19:17 | 43.17868 | -92.03162 | 38469 ft | 482 kts | 148° |
| 2026-05-07 19:17 | 43.15090 | -92.00595 | 38683 ft | 482 kts | 148° |
| 2026-05-07 19:17 | 43.12304 | -91.98022 | 38908 ft | 482 kts | 148° |
| 2026-05-07 19:17 | 43.09509 | -91.95446 | 38900 ft | 486 kts | 148° |
| 2026-05-07 19:18 | 43.03892 | -91.90275 | 38907 ft | 486 kts | 149° |
| 2026-05-07 19:18 | 42.98307 | -91.85144 | 38913 ft | 480 kts | 149° |
| 2026-05-07 19:19 | 42.92780 | -91.80078 | 38911 ft | 478 kts | 149° |
| 2026-05-07 19:19 | 42.87312 | -91.74942 | 38913 ft | 477 kts | 143° |
| 2026-05-07 19:20 | 42.82354 | -91.69011 | 38925 ft | 478 kts | 140° |
| 2026-05-07 19:20 | 42.77412 | -91.62915 | 38927 ft | 480 kts | 140° |
| 2026-05-07 19:21 | 42.72423 | -91.56830 | 38737 ft | 486 kts | 141° |
| 2026-05-07 19:21 | 42.69877 | -91.53755 | 38146 ft | 491 kts | 141° |
| 2026-05-07 19:21 | 42.67327 | -91.50684 | 37526 ft | 489 kts | 141° |
| 2026-05-07 19:22 | 42.64781 | -91.47623 | 36865 ft | 488 kts | 141° |
| 2026-05-07 19:22 | 42.62233 | -91.44565 | 36184 ft | 487 kts | 141° |
| 2026-05-07 19:22 | 42.59685 | -91.41512 | 35442 ft | 488 kts | 141° |
| 2026-05-07 19:22 | 42.57170 | -91.38500 | 34656 ft | 490 kts | 141° |
| 2026-05-07 19:23 | 42.54610 | -91.35437 | 33834 ft | 492 kts | 141° |
| 2026-05-07 19:23 | 42.52037 | -91.32362 | 32958 ft | 494 kts | 141° |
| 2026-05-07 19:23 | 42.49452 | -91.29275 | 32038 ft | 497 kts | 141° |
| 2026-05-07 19:23 | 42.46855 | -91.26180 | 31378 ft | 493 kts | 141° |
| 2026-05-07 19:24 | 42.44290 | -91.23118 | 30696 ft | 490 kts | 141° |
| 2026-05-07 19:24 | 42.41744 | -91.20082 | 30078 ft | 485 kts | 141° |
| 2026-05-07 19:24 | 42.39222 | -91.17081 | 29453 ft | 480 kts | 141° |
| 2026-05-07 19:24 | 42.36720 | -91.14109 | 28813 ft | 475 kts | 141° |
| 2026-05-07 19:25 | 42.34246 | -91.11177 | 28177 ft | 470 kts | 141° |
| 2026-05-07 19:25 | 42.31799 | -91.08277 | 27534 ft | 465 kts | 141° |
| 2026-05-07 19:25 | 42.29375 | -91.05407 | 26903 ft | 461 kts | 141° |
| 2026-05-07 19:25 | 42.26973 | -91.02566 | 26270 ft | 456 kts | 141° |
| 2026-05-07 19:26 | 42.24595 | -90.99758 | 25632 ft | 452 kts | 141° |
| 2026-05-07 19:26 | 42.22242 | -90.96982 | 25018 ft | 447 kts | 141° |
| 2026-05-07 19:26 | 42.19947 | -90.94276 | 24409 ft | 442 kts | 141° |
| 2026-05-07 19:26 | 42.17650 | -90.91572 | 24048 ft | 431 kts | 141° |
| 2026-05-07 19:27 | 42.15399 | -90.88925 | 23944 ft | 427 kts | 141° |
| 2026-05-07 19:27 | 42.13160 | -90.86299 | 23913 ft | 427 kts | 141° |
| 2026-05-07 19:27 | 42.10918 | -90.83672 | 23911 ft | 426 kts | 141° |
| 2026-05-07 19:27 | 42.08683 | -90.81054 | 23909 ft | 427 kts | 141° |
| 2026-05-07 19:28 | 42.06441 | -90.78429 | 23913 ft | 427 kts | 141° |
| 2026-05-07 19:28 | 42.04213 | -90.75821 | 23913 ft | 427 kts | 141° |
| 2026-05-07 19:28 | 42.01966 | -90.73197 | 23916 ft | 427 kts | 141° |
| 2026-05-07 19:28 | 41.99720 | -90.70576 | 23829 ft | 427 kts | 141° |
| 2026-05-07 19:29 | 41.97468 | -90.67955 | 23490 ft | 427 kts | 142° |
| 2026-05-07 19:29 | 41.95261 | -90.65384 | 23257 ft | 423 kts | 141° |
| 2026-05-07 19:29 | 41.93048 | -90.62806 | 23062 ft | 422 kts | 141° |
| 2026-05-07 19:29 | 41.91074 | -90.60508 | 22871 ft | 421 kts | 141° |
| 2026-05-07 19:30 | 41.88918 | -90.58003 | 22664 ft | 419 kts | 142° |
| 2026-05-07 19:30 | 41.86715 | -90.55445 | 22450 ft | 418 kts | 141° |
| 2026-05-07 19:30 | 41.84522 | -90.52905 | 22240 ft | 414 kts | 142° |
| 2026-05-07 19:30 | 41.82354 | -90.50400 | 22030 ft | 410 kts | 142° |
| 2026-05-07 19:31 | 41.80187 | -90.47903 | 21833 ft | 411 kts | 142° |
| 2026-05-07 19:31 | 41.78021 | -90.45409 | 21633 ft | 410 kts | 142° |
| 2026-05-07 19:31 | 41.75859 | -90.42921 | 21418 ft | 407 kts | 142° |
| 2026-05-07 19:31 | 41.73716 | -90.40455 | 21214 ft | 405 kts | 142° |
| 2026-05-07 19:32 | 41.71582 | -90.38001 | 21016 ft | 403 kts | 142° |
| 2026-05-07 19:32 | 41.69487 | -90.35593 | 20817 ft | 402 kts | 142° |
| 2026-05-07 19:32 | 41.67373 | -90.33165 | 20621 ft | 400 kts | 142° |
| 2026-05-07 19:32 | 41.65264 | -90.30747 | 20422 ft | 399 kts | 142° |
| 2026-05-07 19:33 | 41.63159 | -90.28335 | 20225 ft | 398 kts | 141° |
| 2026-05-07 19:33 | 41.61064 | -90.25927 | 20026 ft | 397 kts | 141° |
| 2026-05-07 19:33 | 41.58978 | -90.23524 | 19827 ft | 395 kts | 141° |
| 2026-05-07 19:33 | 41.56893 | -90.21124 | 19628 ft | 394 kts | 141° |
| 2026-05-07 19:34 | 41.55519 | -90.19543 | 19500 ft | 393 kts | 141° |
| 2026-05-07 19:34 | 41.53450 | -90.17165 | 19303 ft | 392 kts | 141° |
| 2026-05-07 19:34 | 41.51386 | -90.14793 | 19107 ft | 391 kts | 141° |
| 2026-05-07 19:34 | 41.49329 | -90.12432 | 18917 ft | 389 kts | 141° |
| 2026-05-07 19:35 | 41.47275 | -90.10075 | 18722 ft | 388 kts | 141° |
| 2026-05-07 19:35 | 41.45231 | -90.07734 | 18526 ft | 386 kts | 141° |
| 2026-05-07 19:35 | 41.43196 | -90.05403 | 18333 ft | 385 kts | 141° |
| 2026-05-07 19:35 | 41.41165 | -90.03080 | 18148 ft | 384 kts | 141° |
| 2026-05-07 19:36 | 41.39145 | -90.00773 | 17960 ft | 382 kts | 141° |
| 2026-05-07 19:36 | 41.37127 | -89.98470 | 17777 ft | 381 kts | 142° |
| 2026-05-07 19:36 | 41.35148 | -89.96136 | 17575 ft | 379 kts | 136° |
| 2026-05-07 19:36 | 41.33571 | -89.93341 | 17237 ft | 378 kts | 120° |
| 2026-05-07 19:37 | 41.32552 | -89.90184 | 16719 ft | 375 kts | 107° |
| 2026-05-07 19:37 | 41.31909 | -89.86821 | 16105 ft | 375 kts | 104° |
| 2026-05-07 19:37 | 41.31300 | -89.83460 | 15722 ft | 369 kts | 104° |
| 2026-05-07 19:37 | 41.30702 | -89.80174 | 15461 ft | 365 kts | 104° |
| 2026-05-07 19:38 | 41.30099 | -89.76901 | 15246 ft | 365 kts | 104° |
| 2026-05-07 19:38 | 41.29485 | -89.73612 | 15034 ft | 368 kts | 104° |
| 2026-05-07 19:38 | 41.28861 | -89.70294 | 14816 ft | 370 kts | 104° |
| 2026-05-07 19:38 | 41.28233 | -89.66984 | 14590 ft | 368 kts | 104° |
| 2026-05-07 19:39 | 41.27606 | -89.63692 | 14374 ft | 366 kts | 104° |
| 2026-05-07 19:39 | 41.26979 | -89.60420 | 14167 ft | 364 kts | 104° |
| 2026-05-07 19:39 | 41.26356 | -89.57167 | 13949 ft | 362 kts | 104° |
| 2026-05-07 19:39 | 41.25736 | -89.53930 | 13739 ft | 360 kts | 104° |
| 2026-05-07 19:40 | 41.25118 | -89.50708 | 13535 ft | 359 kts | 104° |
| 2026-05-07 19:40 | 41.24501 | -89.47502 | 13327 ft | 357 kts | 104° |
| 2026-05-07 19:40 | 41.23884 | -89.44302 | 13117 ft | 356 kts | 104° |
| 2026-05-07 19:40 | 41.23276 | -89.41152 | 12912 ft | 356 kts | 104° |
| 2026-05-07 19:41 | 41.22663 | -89.37973 | 12702 ft | 355 kts | 104° |
| 2026-05-07 19:41 | 41.22050 | -89.34803 | 12497 ft | 354 kts | 104° |
| 2026-05-07 19:41 | 41.21435 | -89.31634 | 12293 ft | 354 kts | 104° |
| 2026-05-07 19:41 | 41.20820 | -89.28471 | 12083 ft | 353 kts | 104° |
| 2026-05-07 19:42 | 41.20207 | -89.25323 | 11873 ft | 351 kts | 104° |
| 2026-05-07 19:42 | 41.19598 | -89.22188 | 11666 ft | 349 kts | 104° |
| 2026-05-07 19:42 | 41.18989 | -89.19073 | 11458 ft | 348 kts | 104° |
| 2026-05-07 19:42 | 41.18383 | -89.15969 | 11261 ft | 346 kts | 104° |
| 2026-05-07 19:43 | 41.18062 | -89.12816 | 11048 ft | 344 kts | 90° |
| 2026-05-07 19:43 | 41.18299 | -89.09710 | 10864 ft | 342 kts | 76° |
| 2026-05-07 19:43 | 41.18970 | -89.06690 | 10661 ft | 341 kts | 71° |
| 2026-05-07 19:43 | 41.19682 | -89.03726 | 10453 ft | 331 kts | 71° |
| 2026-05-07 19:44 | 41.20359 | -89.00852 | 10253 ft | 318 kts | 72° |
| 2026-05-07 19:44 | 41.20997 | -88.98087 | 10072 ft | 308 kts | 72° |
| 2026-05-07 19:44 | 41.21673 | -88.95455 | 9982 ft | 293 kts | 66° |
| 2026-05-07 19:44 | 41.22515 | -88.93037 | 9770 ft | 285 kts | 63° |
| 2026-05-07 19:45 | 41.23387 | -88.90696 | 9626 ft | 281 kts | 63° |
| 2026-05-07 19:45 | 41.24242 | -88.88365 | 9469 ft | 280 kts | 63° |
| 2026-05-07 19:45 | 41.25088 | -88.86024 | 9318 ft | 283 kts | 64° |
| 2026-05-07 19:45 | 41.25933 | -88.83650 | 9157 ft | 285 kts | 64° |
| 2026-05-07 19:46 | 41.26764 | -88.81296 | 9014 ft | 285 kts | 65° |
| 2026-05-07 19:46 | 41.27603 | -88.78914 | 8850 ft | 285 kts | 65° |
| 2026-05-07 19:46 | 41.28443 | -88.76529 | 8696 ft | 285 kts | 65° |
| 2026-05-07 19:46 | 41.29281 | -88.74142 | 8527 ft | 283 kts | 65° |
| 2026-05-07 19:47 | 41.30107 | -88.71786 | 8375 ft | 280 kts | 65° |
| 2026-05-07 19:47 | 41.30926 | -88.69447 | 8237 ft | 278 kts | 65° |
| 2026-05-07 19:47 | 41.31742 | -88.67120 | 8068 ft | 278 kts | 65° |
| 2026-05-07 19:47 | 41.32556 | -88.64793 | 7925 ft | 277 kts | 65° |
| 2026-05-07 19:48 | 41.33365 | -88.62476 | 7768 ft | 276 kts | 65° |
| 2026-05-07 19:48 | 41.34172 | -88.60166 | 7621 ft | 275 kts | 65° |
| 2026-05-07 19:48 | 41.34982 | -88.57855 | 7468 ft | 275 kts | 65° |
| 2026-05-07 19:48 | 41.35787 | -88.55548 | 7322 ft | 275 kts | 65° |
| 2026-05-07 19:49 | 41.36582 | -88.53269 | 7173 ft | 275 kts | 65° |
| 2026-05-07 19:49 | 41.37399 | -88.50963 | 7031 ft | 274 kts | 61° |
| 2026-05-07 19:49 | 41.38470 | -88.48882 | 6936 ft | 272 kts | 51° |
| 2026-05-07 19:49 | 41.39669 | -88.46949 | 6846 ft | 270 kts | 49° |
| 2026-05-07 19:50 | 41.40881 | -88.45040 | 6755 ft | 268 kts | 49° |
| 2026-05-07 19:50 | 41.42075 | -88.43139 | 6673 ft | 267 kts | 49° |
| 2026-05-07 19:50 | 41.43266 | -88.41218 | 6579 ft | 271 kts | 50° |
| 2026-05-07 19:50 | 41.44458 | -88.39280 | 6483 ft | 273 kts | 50° |
| 2026-05-07 19:51 | 41.45663 | -88.37315 | 6400 ft | 273 kts | 50° |
| 2026-05-07 19:51 | 41.46859 | -88.35352 | 6295 ft | 272 kts | 50° |
| 2026-05-07 19:51 | 41.48051 | -88.33390 | 6192 ft | 271 kts | 50° |
| 2026-05-07 19:51 | 41.49233 | -88.31438 | 6076 ft | 270 kts | 50° |
| 2026-05-07 19:52 | 41.50411 | -88.29491 | 6027 ft | 269 kts | 50° |
| 2026-05-07 19:52 | 41.51509 | -88.27461 | 6018 ft | 270 kts | 57° |
| 2026-05-07 19:52 | 41.52487 | -88.25323 | 6016 ft | 270 kts | 59° |
| 2026-05-07 19:52 | 41.53452 | -88.23163 | 6021 ft | 270 kts | 59° |
| 2026-05-07 19:53 | 41.54411 | -88.21041 | 6027 ft | 271 kts | 58° |
| 2026-05-07 19:53 | 41.55394 | -88.18893 | 6024 ft | 271 kts | 58° |
| 2026-05-07 19:53 | 41.56380 | -88.16754 | 6018 ft | 271 kts | 58° |
| 2026-05-07 19:53 | 41.57369 | -88.14613 | 6020 ft | 271 kts | 58° |
| 2026-05-07 19:54 | 41.58355 | -88.12477 | 5997 ft | 272 kts | 58° |
| 2026-05-07 19:54 | 41.59351 | -88.10321 | 5871 ft | 273 kts | 58° |
| 2026-05-07 19:54 | 41.60345 | -88.08166 | 5740 ft | 272 kts | 58° |
| 2026-05-07 19:54 | 41.61330 | -88.06024 | 5625 ft | 269 kts | 58° |
| 2026-05-07 19:55 | 41.62309 | -88.03905 | 5506 ft | 265 kts | 58° |
| 2026-05-07 19:55 | 41.63276 | -88.01809 | 5391 ft | 265 kts | 58° |
| 2026-05-07 19:55 | 41.64241 | -87.99712 | 5285 ft | 265 kts | 58° |
| 2026-05-07 19:55 | 41.65209 | -87.97605 | 5186 ft | 265 kts | 58° |
| 2026-05-07 19:56 | 41.66173 | -87.95504 | 5070 ft | 265 kts | 58° |
| 2026-05-07 19:56 | 41.67140 | -87.93399 | 4962 ft | 265 kts | 58° |
| 2026-05-07 19:56 | 41.68102 | -87.91301 | 4846 ft | 265 kts | 58° |
| 2026-05-07 19:56 | 41.69064 | -87.89203 | 4731 ft | 264 kts | 58° |
| 2026-05-07 19:57 | 41.70025 | -87.87105 | 4619 ft | 264 kts | 58° |
| 2026-05-07 19:57 | 41.70971 | -87.85040 | 4512 ft | 263 kts | 58° |
| 2026-05-07 19:57 | 41.71930 | -87.82944 | 4401 ft | 263 kts | 58° |
| 2026-05-07 19:57 | 41.72883 | -87.80860 | 4287 ft | 263 kts | 58° |
| 2026-05-07 19:58 | 41.73835 | -87.78776 | 4177 ft | 262 kts | 58° |
| 2026-05-07 19:58 | 41.74778 | -87.76710 | 4057 ft | 257 kts | 58° |
| 2026-05-07 19:58 | 41.75486 | -87.74582 | 3988 ft | 244 kts | 83° |
| 2026-05-07 19:58 | 41.75602 | -87.72410 | 3997 ft | 225 kts | 87° |
| 2026-05-07 19:59 | 41.75689 | -87.70396 | 3979 ft | 207 kts | 87° |
| 2026-05-07 19:59 | 41.75768 | -87.68552 | 3963 ft | 194 kts | 86° |
| 2026-05-07 19:59 | 41.76053 | -87.66777 | 3718 ft | 194 kts | 69° |
| 2026-05-07 19:59 | 41.76731 | -87.65251 | 3475 ft | 189 kts | 50° |
| 2026-05-07 20:00 | 41.77688 | -87.64097 | 3257 ft | 182 kts | 33° |
| 2026-05-07 20:00 | 41.78800 | -87.63372 | 3015 ft | 177 kts | 17° |
| 2026-05-07 20:00 | 41.79994 | -87.63132 | 2811 ft | 169 kts | 356° |
| 2026-05-07 20:00 | 41.81119 | -87.63340 | 2657 ft | 157 kts | 348° |
| 2026-05-07 20:01 | 41.82123 | -87.63922 | 2416 ft | 161 kts | 319° |
| 2026-05-07 20:01 | 41.82786 | -87.65042 | 2283 ft | 149 kts | 297° |
| 2026-05-07 20:01 | 41.83172 | -87.66283 | 2090 ft | 147 kts | 279° |
| 2026-05-07 20:01 | 41.83253 | -87.67634 | 1901 ft | 145 kts | 266° |
| 2026-05-07 20:02 | 41.83033 | -87.68934 | 1717 ft | 140 kts | 244° |
| 2026-05-07 20:02 | 41.82510 | -87.70060 | 1561 ft | 146 kts | 232° |
| 2026-05-07 20:02 | 41.81788 | -87.71000 | 1358 ft | 144 kts | 223° |
| 2026-05-07 20:02 | 41.81064 | -87.71899 | 1184 ft | 140 kts | 224° |
| 2026-05-07 20:03 | 41.80330 | -87.72854 | 997 ft | 152 kts | 225° |
| 2026-05-07 20:03 | 41.79574 | -87.73826 | 774 ft | 152 kts | 224° |
| 2026-05-07 20:03 | 41.78845 | -87.74752 | 630 ft | 134 kts | 224° |
| 2026-05-07 20:03 | 41.78309 | -87.75431 | 630 ft | 75 kts | 224° |
| 2026-05-07 20:04 | 41.78104 | -87.75694 | 629 ft | 24 kts | 223° |
| 2026-05-07 20:04 | 41.78007 | -87.75698 | 628 ft | 15 kts | 133° |
| 2026-05-07 20:04 | 41.78024 | -87.75593 | 628 ft | 14 kts | 42° |